Terminal Aerodrome Forecast
Issued by NWS

Home | Current Version | Previous Version | Text Only | Print | Product List | Glossary On
Versions: 1 2 3 4 5 6 7 8 9 10 11 12 13 14 15 16
314
FTUS41 KILN 191455 AAA
TAFLUK
TAF AMD
KLUK 191455Z 1915/2012 24004KT P6SM BKN015 BKN025
     FM191900 24004KT P6SM SCT025 BKN040
     FM192000 24004KT P6SM FEW025 SCT110
     FM200600 00000KT P6SM SCT080
     FM201000 00000KT P6SM BKN060=

USA.gov is the U.S. government's official web portal to all federal, state and local government web resources and services.